sensor_id;sensor_type;location;lat;lon;timestamp;P1;durP1;ratioP1;P2;durP2;ratioP2
28960;SDS011;16068;42.896;20.868;2022-08-03T00:01:44;4.30;;;1.98;;
28960;SDS011;16068;42.896;20.868;2022-08-03T00:04:30;5.28;;;1.85;;
28960;SDS011;16068;42.896;20.868;2022-08-03T00:07:18;4.65;;;2.20;;
28960;SDS011;16068;42.896;20.868;2022-08-03T00:10:04;4.53;;;2.10;;
28960;SDS011;16068;42.896;20.868;2022-08-03T00:12:51;3.75;;;2.10;;
28960;SDS011;16068;42.896;20.868;2022-08-03T00:15:38;8.75;;;1.90;;
28960;SDS011;16068;42.896;20.868;2022-08-03T00:18:25;7.85;;;2.20;;
28960;SDS011;16068;42.896;20.868;2022-08-03T00:21:11;5.80;;;2.05;;
28960;SDS011;16068;42.896;20.868;2022-08-03T00:23:57;3.55;;;1.70;;
28960;SDS011;16068;42.896;20.868;2022-08-03T00:26:43;2.85;;;1.90;;
28960;SDS011;16068;42.896;20.868;2022-08-03T00:29:29;3.90;;;2.03;;
28960;SDS011;16068;42.896;20.868;2022-08-03T00:32:15;4.35;;;1.90;;
28960;SDS011;16068;42.896;20.868;2022-08-03T00:35:03;7.25;;;2.00;;
28960;SDS011;16068;42.896;20.868;2022-08-03T00:37:54;3.92;;;1.80;;
28960;SDS011;16068;42.896;20.868;2022-08-03T00:40:40;2.90;;;1.88;;
28960;SDS011;16068;42.896;20.868;2022-08-03T00:43:29;2.75;;;1.60;;
28960;SDS011;16068;42.896;20.868;2022-08-03T00:46:15;14.57;;;2.15;;
28960;SDS011;16068;42.896;20.868;2022-08-03T00:49:06;2.42;;;1.80;;
28960;SDS011;16068;42.896;20.868;2022-08-03T00:51:52;5.30;;;2.10;;
28960;SDS011;16068;42.896;20.868;2022-08-03T00:54:38;3.85;;;2.08;;
28960;SDS011;16068;42.896;20.868;2022-08-03T00:57:24;7.32;;;3.00;;
28960;SDS011;16068;42.896;20.868;2022-08-03T01:00:12;3.58;;;2.60;;
28960;SDS011;16068;42.896;20.868;2022-08-03T01:03:00;5.75;;;3.70;;
28960;SDS011;16068;42.896;20.868;2022-08-03T01:06:49;6.57;;;3.67;;
28960;SDS011;16068;42.896;20.868;2022-08-03T01:12:43;4.90;;;2.10;;
28960;SDS011;16068;42.896;20.868;2022-08-03T01:15:44;4.43;;;1.98;;
28960;SDS011;16068;42.896;20.868;2022-08-03T01:22:15;3.90;;;1.92;;
28960;SDS011;16068;42.896;20.868;2022-08-03T01:28:12;4.15;;;1.80;;
28960;SDS011;16068;42.896;20.868;2022-08-03T01:31:28;4.40;;;1.90;;
28960;SDS011;16068;42.896;20.868;2022-08-03T01:34:42;4.05;;;2.35;;
28960;SDS011;16068;42.896;20.868;2022-08-03T01:37:37;4.85;;;2.03;;
28960;SDS011;16068;42.896;20.868;2022-08-03T01:43:14;15.38;;;10.88;;
28960;SDS011;16068;42.896;20.868;2022-08-03T01:46:21;7.57;;;4.88;;
28960;SDS011;16068;42.896;20.868;2022-08-03T01:49:08;11.60;;;6.25;;
28960;SDS011;16068;42.896;20.868;2022-08-03T01:51:56;10.98;;;4.45;;
28960;SDS011;16068;42.896;20.868;2022-08-03T01:54:50;9.27;;;3.75;;
28960;SDS011;16068;42.896;20.868;2022-08-03T01:57:37;5.88;;;2.70;;
28960;SDS011;16068;42.896;20.868;2022-08-03T02:00:44;5.30;;;2.60;;
28960;SDS011;16068;42.896;20.868;2022-08-03T02:03:33;5.15;;;2.10;;
28960;SDS011;16068;42.896;20.868;2022-08-03T02:06:21;3.15;;;2.40;;
28960;SDS011;16068;42.896;20.868;2022-08-03T02:09:27;2.40;;;2.20;;
28960;SDS011;16068;42.896;20.868;2022-08-03T02:12:14;3.33;;;2.13;;
28960;SDS011;16068;42.896;20.868;2022-08-03T02:15:01;3.25;;;2.17;;
28960;SDS011;16068;42.896;20.868;2022-08-03T02:17:48;2.60;;;1.90;;
28960;SDS011;16068;42.896;20.868;2022-08-03T02:20:35;4.05;;;2.10;;
28960;SDS011;16068;42.896;20.868;2022-08-03T02:23:23;2.78;;;2.00;;
28960;SDS011;16068;42.896;20.868;2022-08-03T02:26:10;4.80;;;1.90;;
28960;SDS011;16068;42.896;20.868;2022-08-03T02:29:08;8.23;;;2.10;;
28960;SDS011;16068;42.896;20.868;2022-08-03T02:31:59;2.33;;;1.88;;
28960;SDS011;16068;42.896;20.868;2022-08-03T02:34:51;6.57;;;2.00;;
28960;SDS011;16068;42.896;20.868;2022-08-03T02:37:49;6.15;;;1.80;;
28960;SDS011;16068;42.896;20.868;2022-08-03T02:40:44;3.80;;;1.77;;
28960;SDS011;16068;42.896;20.868;2022-08-03T02:43:30;3.78;;;2.10;;
28960;SDS011;16068;42.896;20.868;2022-08-03T02:46:41;3.15;;;1.90;;
28960;SDS011;16068;42.896;20.868;2022-08-03T02:49:29;3.60;;;1.90;;
28960;SDS011;16068;42.896;20.868;2022-08-03T02:52:35;2.63;;;1.80;;
28960;SDS011;16068;42.896;20.868;2022-08-03T02:55:22;4.03;;;2.00;;
28960;SDS011;16068;42.896;20.868;2022-08-03T02:58:10;3.67;;;1.90;;
28960;SDS011;16068;42.896;20.868;2022-08-03T03:00:58;4.30;;;2.03;;
28960;SDS011;16068;42.896;20.868;2022-08-03T03:03:44;9.77;;;2.10;;
28960;SDS011;16068;42.896;20.868;2022-08-03T03:06:32;8.82;;;3.47;;
28960;SDS011;16068;42.896;20.868;2022-08-03T03:09:20;6.85;;;2.33;;
28960;SDS011;16068;42.896;20.868;2022-08-03T03:12:06;4.72;;;2.42;;
28960;SDS011;16068;42.896;20.868;2022-08-03T03:14:53;7.80;;;2.53;;
28960;SDS011;16068;42.896;20.868;2022-08-03T03:17:42;5.15;;;2.80;;
28960;SDS011;16068;42.896;20.868;2022-08-03T03:20:28;15.40;;;3.38;;
28960;SDS011;16068;42.896;20.868;2022-08-03T03:23:16;15.25;;;3.08;;
28960;SDS011;16068;42.896;20.868;2022-08-03T03:26:02;5.88;;;2.38;;
28960;SDS011;16068;42.896;20.868;2022-08-03T03:28:49;8.82;;;3.30;;
28960;SDS011;16068;42.896;20.868;2022-08-03T03:31:35;4.70;;;2.22;;
28960;SDS011;16068;42.896;20.868;2022-08-03T03:34:21;7.57;;;2.30;;
28960;SDS011;16068;42.896;20.868;2022-08-03T03:37:09;12.52;;;3.22;;
28960;SDS011;16068;42.896;20.868;2022-08-03T03:39:55;12.82;;;3.35;;
28960;SDS011;16068;42.896;20.868;2022-08-03T03:42:41;29.63;;;6.72;;
28960;SDS011;16068;42.896;20.868;2022-08-03T03:45:27;14.10;;;3.13;;
28960;SDS011;16068;42.896;20.868;2022-08-03T03:48:13;7.45;;;3.25;;
28960;SDS011;16068;42.896;20.868;2022-08-03T03:51:00;11.48;;;2.95;;
28960;SDS011;16068;42.896;20.868;2022-08-03T03:53:58;3.85;;;2.38;;
28960;SDS011;16068;42.896;20.868;2022-08-03T03:56:51;12.77;;;2.92;;
28960;SDS011;16068;42.896;20.868;2022-08-03T03:59:41;9.00;;;2.53;;
28960;SDS011;16068;42.896;20.868;2022-08-03T04:02:27;10.02;;;2.50;;
28960;SDS011;16068;42.896;20.868;2022-08-03T04:05:13;7.45;;;2.38;;
28960;SDS011;16068;42.896;20.868;2022-08-03T04:08:24;7.30;;;2.25;;
28960;SDS011;16068;42.896;20.868;2022-08-03T04:11:35;11.60;;;2.83;;
28960;SDS011;16068;42.896;20.868;2022-08-03T04:14:27;5.45;;;2.67;;
28960;SDS011;16068;42.896;20.868;2022-08-03T04:17:19;4.95;;;2.10;;
28960;SDS011;16068;42.896;20.868;2022-08-03T04:20:07;13.30;;;2.95;;
28960;SDS011;16068;42.896;20.868;2022-08-03T04:22:56;5.95;;;2.42;;
28960;SDS011;16068;42.896;20.868;2022-08-03T04:25:44;5.05;;;2.30;;
28960;SDS011;16068;42.896;20.868;2022-08-03T04:28:30;8.88;;;2.20;;
28960;SDS011;16068;42.896;20.868;2022-08-03T04:31:17;5.88;;;2.20;;
28960;SDS011;16068;42.896;20.868;2022-08-03T04:34:05;8.95;;;2.50;;
28960;SDS011;16068;42.896;20.868;2022-08-03T04:36:53;7.50;;;2.80;;
28960;SDS011;16068;42.896;20.868;2022-08-03T04:39:42;4.03;;;2.20;;
28960;SDS011;16068;42.896;20.868;2022-08-03T04:42:29;4.57;;;2.88;;
28960;SDS011;16068;42.896;20.868;2022-08-03T04:45:16;8.20;;;2.45;;
28960;SDS011;16068;42.896;20.868;2022-08-03T04:48:08;10.57;;;2.22;;
28960;SDS011;16068;42.896;20.868;2022-08-03T04:50:55;11.52;;;2.67;;
28960;SDS011;16068;42.896;20.868;2022-08-03T04:53:45;4.63;;;2.40;;
28960;SDS011;16068;42.896;20.868;2022-08-03T04:56:32;8.07;;;2.40;;
28960;SDS011;16068;42.896;20.868;2022-08-03T04:59:22;8.68;;;2.47;;
28960;SDS011;16068;42.896;20.868;2022-08-03T05:02:08;12.70;;;2.53;;
28960;SDS011;16068;42.896;20.868;2022-08-03T05:04:55;18.83;;;2.65;;
28960;SDS011;16068;42.896;20.868;2022-08-03T05:07:41;4.85;;;2.60;;
28960;SDS011;16068;42.896;20.868;2022-08-03T05:10:28;4.38;;;2.28;;
28960;SDS011;16068;42.896;20.868;2022-08-03T05:13:14;3.72;;;2.30;;
28960;SDS011;16068;42.896;20.868;2022-08-03T05:16:03;7.55;;;2.55;;
28960;SDS011;16068;42.896;20.868;2022-08-03T05:18:54;9.27;;;2.67;;
28960;SDS011;16068;42.896;20.868;2022-08-03T05:21:45;4.13;;;2.17;;
28960;SDS011;16068;42.896;20.868;2022-08-03T05:24:37;3.25;;;2.10;;
28960;SDS011;16068;42.896;20.868;2022-08-03T05:27:30;7.57;;;2.30;;
28960;SDS011;16068;42.896;20.868;2022-08-03T05:30:30;7.72;;;2.33;;
28960;SDS011;16068;42.896;20.868;2022-08-03T05:33:18;6.25;;;2.47;;
28960;SDS011;16068;42.896;20.868;2022-08-03T05:36:04;6.35;;;2.40;;
28960;SDS011;16068;42.896;20.868;2022-08-03T05:38:51;4.43;;;2.30;;
28960;SDS011;16068;42.896;20.868;2022-08-03T05:41:37;5.50;;;2.03;;
28960;SDS011;16068;42.896;20.868;2022-08-03T05:44:23;3.75;;;2.10;;
28960;SDS011;16068;42.896;20.868;2022-08-03T05:47:15;4.82;;;2.33;;
28960;SDS011;16068;42.896;20.868;2022-08-03T05:50:08;4.35;;;2.20;;
28960;SDS011;16068;42.896;20.868;2022-08-03T05:55:43;3.75;;;2.25;;
28960;SDS011;16068;42.896;20.868;2022-08-03T05:58:46;5.78;;;2.20;;
28960;SDS011;16068;42.896;20.868;2022-08-03T06:01:32;3.47;;;2.00;;
28960;SDS011;16068;42.896;20.868;2022-08-03T06:04:18;6.25;;;2.17;;
28960;SDS011;16068;42.896;20.868;2022-08-03T06:07:04;5.05;;;2.10;;
28960;SDS011;16068;42.896;20.868;2022-08-03T06:09:50;10.00;;;2.30;;
28960;SDS011;16068;42.896;20.868;2022-08-03T06:13:07;4.05;;;1.90;;
28960;SDS011;16068;42.896;20.868;2022-08-03T06:15:53;7.55;;;2.38;;
28960;SDS011;16068;42.896;20.868;2022-08-03T06:18:39;5.78;;;2.33;;
28960;SDS011;16068;42.896;20.868;2022-08-03T06:21:25;7.40;;;2.38;;
28960;SDS011;16068;42.896;20.868;2022-08-03T06:24:11;6.25;;;1.92;;
28960;SDS011;16068;42.896;20.868;2022-08-03T06:26:59;10.57;;;2.45;;
28960;SDS011;16068;42.896;20.868;2022-08-03T06:29:45;4.22;;;2.20;;
28960;SDS011;16068;42.896;20.868;2022-08-03T06:32:31;6.00;;;2.50;;
28960;SDS011;16068;42.896;20.868;2022-08-03T06:35:18;4.72;;;2.40;;
28960;SDS011;16068;42.896;20.868;2022-08-03T06:38:04;4.82;;;2.22;;
28960;SDS011;16068;42.896;20.868;2022-08-03T06:40:52;6.55;;;2.65;;
28960;SDS011;16068;42.896;20.868;2022-08-03T06:43:41;6.15;;;2.78;;
28960;SDS011;16068;42.896;20.868;2022-08-03T06:46:53;5.03;;;2.03;;
28960;SDS011;16068;42.896;20.868;2022-08-03T06:49:43;5.47;;;2.30;;
28960;SDS011;16068;42.896;20.868;2022-08-03T06:52:49;5.88;;;2.45;;
28960;SDS011;16068;42.896;20.868;2022-08-03T06:55:35;3.63;;;2.00;;
28960;SDS011;16068;42.896;20.868;2022-08-03T06:58:27;7.45;;;2.40;;
28960;SDS011;16068;42.896;20.868;2022-08-03T07:01:14;3.33;;;2.10;;
28960;SDS011;16068;42.896;20.868;2022-08-03T07:04:03;7.43;;;2.30;;
28960;SDS011;16068;42.896;20.868;2022-08-03T07:06:50;4.50;;;2.30;;
28960;SDS011;16068;42.896;20.868;2022-08-03T07:09:36;4.70;;;2.47;;
28960;SDS011;16068;42.896;20.868;2022-08-03T07:12:26;4.43;;;2.08;;
28960;SDS011;16068;42.896;20.868;2022-08-03T07:15:13;8.05;;;2.40;;
28960;SDS011;16068;42.896;20.868;2022-08-03T07:18:19;9.90;;;3.20;;
28960;SDS011;16068;42.896;20.868;2022-08-03T07:21:14;4.55;;;2.30;;
28960;SDS011;16068;42.896;20.868;2022-08-03T07:24:01;8.43;;;2.53;;
28960;SDS011;16068;42.896;20.868;2022-08-03T07:26:47;7.97;;;2.30;;
28960;SDS011;16068;42.896;20.868;2022-08-03T07:29:33;4.40;;;2.25;;
28960;SDS011;16068;42.896;20.868;2022-08-03T07:32:19;6.72;;;2.15;;
28960;SDS011;16068;42.896;20.868;2022-08-03T07:35:05;5.13;;;2.15;;
28960;SDS011;16068;42.896;20.868;2022-08-03T07:37:53;6.80;;;2.72;;
28960;SDS011;16068;42.896;20.868;2022-08-03T07:40:39;10.85;;;2.53;;
28960;SDS011;16068;42.896;20.868;2022-08-03T07:43:30;10.40;;;2.20;;
28960;SDS011;16068;42.896;20.868;2022-08-03T07:46:16;4.90;;;2.33;;
28960;SDS011;16068;42.896;20.868;2022-08-03T07:49:02;6.00;;;2.08;;
28960;SDS011;16068;42.896;20.868;2022-08-03T07:51:48;5.32;;;2.17;;
28960;SDS011;16068;42.896;20.868;2022-08-03T07:54:54;6.22;;;2.38;;
28960;SDS011;16068;42.896;20.868;2022-08-03T07:57:39;5.05;;;2.60;;
28960;SDS011;16068;42.896;20.868;2022-08-03T08:00:26;7.90;;;2.10;;
28960;SDS011;16068;42.896;20.868;2022-08-03T08:03:12;2.47;;;1.80;;
28960;SDS011;16068;42.896;20.868;2022-08-03T08:05:58;7.43;;;1.80;;
28960;SDS011;16068;42.896;20.868;2022-08-03T08:08:44;5.93;;;1.95;;
28960;SDS011;16068;42.896;20.868;2022-08-03T08:11:30;7.20;;;2.15;;
28960;SDS011;16068;42.896;20.868;2022-08-03T08:14:22;3.85;;;1.90;;
28960;SDS011;16068;42.896;20.868;2022-08-03T08:17:09;4.22;;;1.83;;
28960;SDS011;16068;42.896;20.868;2022-08-03T08:19:55;15.32;;;2.10;;
28960;SDS011;16068;42.896;20.868;2022-08-03T08:22:42;7.28;;;1.90;;
28960;SDS011;16068;42.896;20.868;2022-08-03T08:25:29;5.80;;;1.60;;
28960;SDS011;16068;42.896;20.868;2022-08-03T08:28:19;4.55;;;1.90;;
28960;SDS011;16068;42.896;20.868;2022-08-03T08:31:17;9.70;;;2.60;;
28960;SDS011;16068;42.896;20.868;2022-08-03T08:34:03;3.75;;;2.17;;
28960;SDS011;16068;42.896;20.868;2022-08-03T08:36:50;3.38;;;2.17;;
28960;SDS011;16068;42.896;20.868;2022-08-03T08:39:36;6.93;;;2.17;;
28960;SDS011;16068;42.896;20.868;2022-08-03T08:42:21;3.60;;;1.77;;
28960;SDS011;16068;42.896;20.868;2022-08-03T08:45:07;6.68;;;1.70;;
28960;SDS011;16068;42.896;20.868;2022-08-03T08:47:54;3.30;;;1.90;;
28960;SDS011;16068;42.896;20.868;2022-08-03T08:50:47;11.95;;;2.20;;
28960;SDS011;16068;42.896;20.868;2022-08-03T08:53:34;5.45;;;1.83;;
28960;SDS011;16068;42.896;20.868;2022-08-03T08:56:21;6.75;;;2.35;;
28960;SDS011;16068;42.896;20.868;2022-08-03T08:59:10;5.25;;;1.85;;
28960;SDS011;16068;42.896;20.868;2022-08-03T09:01:56;2.55;;;1.85;;
28960;SDS011;16068;42.896;20.868;2022-08-03T09:04:43;7.85;;;1.80;;
28960;SDS011;16068;42.896;20.868;2022-08-03T09:07:30;9.10;;;2.00;;
28960;SDS011;16068;42.896;20.868;2022-08-03T09:10:16;5.22;;;2.05;;
28960;SDS011;16068;42.896;20.868;2022-08-03T09:13:10;5.60;;;1.95;;
28960;SDS011;16068;42.896;20.868;2022-08-03T09:16:11;5.28;;;2.00;;
28960;SDS011;16068;42.896;20.868;2022-08-03T09:19:02;4.60;;;1.70;;
28960;SDS011;16068;42.896;20.868;2022-08-03T09:22:10;3.90;;;1.80;;
28960;SDS011;16068;42.896;20.868;2022-08-03T09:24:58;3.10;;;1.90;;
28960;SDS011;16068;42.896;20.868;2022-08-03T09:28:15;3.83;;;2.10;;
28960;SDS011;16068;42.896;20.868;2022-08-03T09:34:16;3.28;;;1.60;;
28960;SDS011;16068;42.896;20.868;2022-08-03T09:37:02;6.22;;;1.60;;
28960;SDS011;16068;42.896;20.868;2022-08-03T09:40:00;3.72;;;1.90;;
28960;SDS011;16068;42.896;20.868;2022-08-03T09:42:55;5.40;;;1.95;;
28960;SDS011;16068;42.896;20.868;2022-08-03T09:45:42;1.85;;;1.70;;
28960;SDS011;16068;42.896;20.868;2022-08-03T09:48:31;3.05;;;1.73;;
28960;SDS011;16068;42.896;20.868;2022-08-03T09:51:23;6.93;;;1.83;;
28960;SDS011;16068;42.896;20.868;2022-08-03T09:54:31;4.28;;;1.50;;
28960;SDS011;16068;42.896;20.868;2022-08-03T09:57:24;7.05;;;2.00;;
28960;SDS011;16068;42.896;20.868;2022-08-03T10:00:18;5.50;;;1.60;;
28960;SDS011;16068;42.896;20.868;2022-08-03T10:03:04;5.55;;;1.85;;
28960;SDS011;16068;42.896;20.868;2022-08-03T10:05:50;7.57;;;2.35;;
28960;SDS011;16068;42.896;20.868;2022-08-03T10:08:47;5.10;;;2.58;;
28960;SDS011;16068;42.896;20.868;2022-08-03T10:11:51;9.73;;;1.80;;
28960;SDS011;16068;42.896;20.868;2022-08-03T10:14:38;6.10;;;2.30;;
28960;SDS011;16068;42.896;20.868;2022-08-03T10:17:26;3.50;;;2.05;;
28960;SDS011;16068;42.896;20.868;2022-08-03T10:20:12;6.50;;;2.40;;
28960;SDS011;16068;42.896;20.868;2022-08-03T10:22:58;5.28;;;2.30;;
28960;SDS011;16068;42.896;20.868;2022-08-03T10:25:52;9.20;;;2.40;;
28960;SDS011;16068;42.896;20.868;2022-08-03T10:28:41;4.20;;;1.90;;
28960;SDS011;16068;42.896;20.868;2022-08-03T10:31:38;4.25;;;1.88;;
28960;SDS011;16068;42.896;20.868;2022-08-03T10:34:42;7.00;;;2.10;;
28960;SDS011;16068;42.896;20.868;2022-08-03T10:37:29;3.05;;;2.05;;
28960;SDS011;16068;42.896;20.868;2022-08-03T10:40:17;5.85;;;2.03;;
28960;SDS011;16068;42.896;20.868;2022-08-03T10:43:27;1.77;;;1.40;;
28960;SDS011;16068;42.896;20.868;2022-08-03T10:46:31;4.28;;;2.00;;
28960;SDS011;16068;42.896;20.868;2022-08-03T10:49:18;11.45;;;2.00;;
28960;SDS011;16068;42.896;20.868;2022-08-03T10:52:19;13.23;;;1.90;;
28960;SDS011;16068;42.896;20.868;2022-08-03T10:55:33;7.15;;;1.55;;
28960;SDS011;16068;42.896;20.868;2022-08-03T10:58:46;5.10;;;1.75;;
28960;SDS011;16068;42.896;20.868;2022-08-03T11:01:49;12.82;;;2.70;;
28960;SDS011;16068;42.896;20.868;2022-08-03T11:04:44;1.70;;;1.30;;
28960;SDS011;16068;42.896;20.868;2022-08-03T11:07:31;2.10;;;1.67;;
28960;SDS011;16068;42.896;20.868;2022-08-03T11:10:35;6.00;;;1.80;;
28960;SDS011;16068;42.896;20.868;2022-08-03T11:13:31;3.45;;;1.60;;
28960;SDS011;16068;42.896;20.868;2022-08-03T11:16:19;7.45;;;2.20;;
28960;SDS011;16068;42.896;20.868;2022-08-03T11:19:08;4.47;;;1.98;;
28960;SDS011;16068;42.896;20.868;2022-08-03T11:21:56;7.90;;;1.95;;
28960;SDS011;16068;42.896;20.868;2022-08-03T11:27:32;5.97;;;1.83;;
28960;SDS011;16068;42.896;20.868;2022-08-03T11:33:04;4.47;;;1.77;;
28960;SDS011;16068;42.896;20.868;2022-08-03T11:36:00;3.83;;;1.55;;
28960;SDS011;16068;42.896;20.868;2022-08-03T11:42:17;2.70;;;1.38;;
28960;SDS011;16068;42.896;20.868;2022-08-03T11:45:07;5.18;;;1.40;;
28960;SDS011;16068;42.896;20.868;2022-08-03T11:47:54;10.57;;;2.20;;
28960;SDS011;16068;42.896;20.868;2022-08-03T11:50:40;4.03;;;1.60;;
28960;SDS011;16068;42.896;20.868;2022-08-03T11:53:30;4.75;;;1.67;;
28960;SDS011;16068;42.896;20.868;2022-08-03T11:56:16;2.75;;;1.60;;
28960;SDS011;16068;42.896;20.868;2022-08-03T11:59:03;3.15;;;1.75;;
28960;SDS011;16068;42.896;20.868;2022-08-03T12:02:06;2.55;;;1.27;;
28960;SDS011;16068;42.896;20.868;2022-08-03T12:04:53;11.38;;;2.05;;
28960;SDS011;16068;42.896;20.868;2022-08-03T12:07:44;6.47;;;1.83;;
28960;SDS011;16068;42.896;20.868;2022-08-03T12:10:51;8.35;;;2.05;;
28960;SDS011;16068;42.896;20.868;2022-08-03T12:13:42;14.82;;;2.90;;
28960;SDS011;16068;42.896;20.868;2022-08-03T12:16:53;8.50;;;2.03;;
28960;SDS011;16068;42.896;20.868;2022-08-03T12:19:42;9.63;;;2.10;;
28960;SDS011;16068;42.896;20.868;2022-08-03T12:22:35;15.85;;;2.67;;
28960;SDS011;16068;42.896;20.868;2022-08-03T12:25:23;12.60;;;2.28;;
28960;SDS011;16068;42.896;20.868;2022-08-03T12:28:24;8.13;;;1.92;;
28960;SDS011;16068;42.896;20.868;2022-08-03T12:31:22;6.72;;;1.45;;
28960;SDS011;16068;42.896;20.868;2022-08-03T12:34:09;6.20;;;1.10;;
28960;SDS011;16068;42.896;20.868;2022-08-03T12:36:55;2.90;;;1.30;;
28960;SDS011;16068;42.896;20.868;2022-08-03T12:39:42;5.22;;;1.20;;
28960;SDS011;16068;42.896;20.868;2022-08-03T12:42:50;2.95;;;1.63;;
28960;SDS011;16068;42.896;20.868;2022-08-03T12:45:36;9.68;;;2.00;;
28960;SDS011;16068;42.896;20.868;2022-08-03T12:48:22;6.50;;;1.60;;
28960;SDS011;16068;42.896;20.868;2022-08-03T12:51:12;3.40;;;1.67;;
28960;SDS011;16068;42.896;20.868;2022-08-03T12:53:58;3.38;;;1.10;;
28960;SDS011;16068;42.896;20.868;2022-08-03T13:00:08;4.05;;;1.10;;
28960;SDS011;16068;42.896;20.868;2022-08-03T13:03:13;1.00;;;0.83;;
28960;SDS011;16068;42.896;20.868;2022-08-03T13:06:22;6.45;;;0.98;;
28960;SDS011;16068;42.896;20.868;2022-08-03T13:09:09;6.85;;;1.42;;
28960;SDS011;16068;42.896;20.868;2022-08-03T13:12:08;2.13;;;1.00;;
28960;SDS011;16068;42.896;20.868;2022-08-03T13:14:56;2.90;;;1.27;;
28960;SDS011;16068;42.896;20.868;2022-08-03T13:17:43;2.75;;;1.05;;
28960;SDS011;16068;42.896;20.868;2022-08-03T13:20:29;10.90;;;1.77;;
28960;SDS011;16068;42.896;20.868;2022-08-03T13:23:15;4.53;;;1.42;;
28960;SDS011;16068;42.896;20.868;2022-08-03T13:26:07;2.53;;;1.60;;
28960;SDS011;16068;42.896;20.868;2022-08-03T13:28:54;3.28;;;1.17;;
28960;SDS011;16068;42.896;20.868;2022-08-03T13:31:40;6.13;;;1.45;;
28960;SDS011;16068;42.896;20.868;2022-08-03T13:34:36;5.82;;;1.50;;
28960;SDS011;16068;42.896;20.868;2022-08-03T13:37:23;4.88;;;1.33;;
28960;SDS011;16068;42.896;20.868;2022-08-03T13:40:10;8.07;;;1.70;;
28960;SDS011;16068;42.896;20.868;2022-08-03T13:42:59;4.00;;;1.30;;
28960;SDS011;16068;42.896;20.868;2022-08-03T13:45:44;3.63;;;1.27;;
28960;SDS011;16068;42.896;20.868;2022-08-03T13:48:39;7.07;;;1.35;;
28960;SDS011;16068;42.896;20.868;2022-08-03T13:51:25;1.73;;;1.20;;
28960;SDS011;16068;42.896;20.868;2022-08-03T13:54:11;8.98;;;1.52;;
28960;SDS011;16068;42.896;20.868;2022-08-03T13:56:57;4.68;;;2.00;;
28960;SDS011;16068;42.896;20.868;2022-08-03T14:00:04;6.60;;;1.70;;
28960;SDS011;16068;42.896;20.868;2022-08-03T14:02:51;5.15;;;1.50;;
28960;SDS011;16068;42.896;20.868;2022-08-03T14:05:43;6.63;;;1.10;;
28960;SDS011;16068;42.896;20.868;2022-08-03T14:08:30;8.68;;;1.58;;
28960;SDS011;16068;42.896;20.868;2022-08-03T14:11:16;3.35;;;1.20;;
28960;SDS011;16068;42.896;20.868;2022-08-03T14:14:02;13.07;;;1.50;;
28960;SDS011;16068;42.896;20.868;2022-08-03T14:16:48;14.73;;;1.95;;
28960;SDS011;16068;42.896;20.868;2022-08-03T14:19:39;4.65;;;1.80;;
28960;SDS011;16068;42.896;20.868;2022-08-03T14:22:38;9.35;;;1.38;;
28960;SDS011;16068;42.896;20.868;2022-08-03T14:25:24;4.88;;;1.80;;
28960;SDS011;16068;42.896;20.868;2022-08-03T14:28:10;45.10;;;20.52;;
28960;SDS011;16068;42.896;20.868;2022-08-03T14:30:56;8.52;;;2.08;;
28960;SDS011;16068;42.896;20.868;2022-08-03T14:33:42;6.65;;;1.85;;
28960;SDS011;16068;42.896;20.868;2022-08-03T14:36:28;8.80;;;2.17;;
28960;SDS011;16068;42.896;20.868;2022-08-03T14:39:14;2.58;;;1.70;;
28960;SDS011;16068;42.896;20.868;2022-08-03T14:42:00;4.32;;;1.80;;
28960;SDS011;16068;42.896;20.868;2022-08-03T14:44:46;10.40;;;2.65;;
28960;SDS011;16068;42.896;20.868;2022-08-03T14:47:32;4.45;;;2.00;;
28960;SDS011;16068;42.896;20.868;2022-08-03T14:50:39;6.05;;;1.50;;
28960;SDS011;16068;42.896;20.868;2022-08-03T14:53:29;6.60;;;1.90;;
28960;SDS011;16068;42.896;20.868;2022-08-03T14:56:15;7.63;;;2.42;;
28960;SDS011;16068;42.896;20.868;2022-08-03T14:59:02;3.42;;;1.70;;
28960;SDS011;16068;42.896;20.868;2022-08-03T15:01:48;4.15;;;1.42;;
28960;SDS011;16068;42.896;20.868;2022-08-03T15:04:50;32.38;;;16.20;;
28960;SDS011;16068;42.896;20.868;2022-08-03T15:07:37;3.50;;;1.98;;
28960;SDS011;16068;42.896;20.868;2022-08-03T15:10:23;30.13;;;16.88;;
28960;SDS011;16068;42.896;20.868;2022-08-03T15:13:24;31.75;;;14.13;;
28960;SDS011;16068;42.896;20.868;2022-08-03T15:16:11;28.75;;;14.27;;
28960;SDS011;16068;42.896;20.868;2022-08-03T15:18:57;26.98;;;12.23;;
28960;SDS011;16068;42.896;20.868;2022-08-03T15:21:43;13.25;;;7.47;;
28960;SDS011;16068;42.896;20.868;2022-08-03T15:24:32;10.93;;;4.90;;
28960;SDS011;16068;42.896;20.868;2022-08-03T15:27:18;7.47;;;2.70;;
28960;SDS011;16068;42.896;20.868;2022-08-03T15:30:04;11.43;;;2.80;;
28960;SDS011;16068;42.896;20.868;2022-08-03T15:32:54;20.05;;;11.68;;
28960;SDS011;16068;42.896;20.868;2022-08-03T15:35:41;29.33;;;20.90;;
28960;SDS011;16068;42.896;20.868;2022-08-03T15:38:27;28.55;;;21.33;;
28960;SDS011;16068;42.896;20.868;2022-08-03T15:41:13;32.45;;;17.73;;
28960;SDS011;16068;42.896;20.868;2022-08-03T15:44:00;18.48;;;10.75;;
28960;SDS011;16068;42.896;20.868;2022-08-03T15:46:53;19.90;;;13.30;;
28960;SDS011;16068;42.896;20.868;2022-08-03T15:49:39;16.45;;;13.68;;
28960;SDS011;16068;42.896;20.868;2022-08-03T15:52:26;11.60;;;7.93;;
28960;SDS011;16068;42.896;20.868;2022-08-03T15:55:12;19.05;;;9.27;;
28960;SDS011;16068;42.896;20.868;2022-08-03T15:58:01;10.45;;;6.90;;
28960;SDS011;16068;42.896;20.868;2022-08-03T16:01:07;7.85;;;3.30;;
28960;SDS011;16068;42.896;20.868;2022-08-03T16:03:53;11.93;;;5.68;;
28960;SDS011;16068;42.896;20.868;2022-08-03T16:06:40;16.35;;;8.18;;
28960;SDS011;16068;42.896;20.868;2022-08-03T16:09:26;11.50;;;6.45;;
28960;SDS011;16068;42.896;20.868;2022-08-03T16:12:28;17.83;;;8.52;;
28960;SDS011;16068;42.896;20.868;2022-08-03T16:15:14;14.02;;;5.07;;
28960;SDS011;16068;42.896;20.868;2022-08-03T16:18:00;11.50;;;5.40;;
28960;SDS011;16068;42.896;20.868;2022-08-03T16:20:46;6.82;;;2.00;;
28960;SDS011;16068;42.896;20.868;2022-08-03T16:23:32;21.17;;;7.65;;
28960;SDS011;16068;42.896;20.868;2022-08-03T16:26:22;5.95;;;2.30;;
28960;SDS011;16068;42.896;20.868;2022-08-03T16:29:12;3.53;;;2.00;;
28960;SDS011;16068;42.896;20.868;2022-08-03T16:32:09;8.70;;;3.85;;
28960;SDS011;16068;42.896;20.868;2022-08-03T16:34:55;10.77;;;5.18;;
28960;SDS011;16068;42.896;20.868;2022-08-03T16:37:41;9.48;;;3.70;;
28960;SDS011;16068;42.896;20.868;2022-08-03T16:40:41;15.30;;;4.45;;
28960;SDS011;16068;42.896;20.868;2022-08-03T16:43:27;10.05;;;2.70;;
28960;SDS011;16068;42.896;20.868;2022-08-03T16:46:13;9.45;;;3.50;;
28960;SDS011;16068;42.896;20.868;2022-08-03T16:48:59;12.60;;;2.65;;
28960;SDS011;16068;42.896;20.868;2022-08-03T16:51:45;4.82;;;1.80;;
28960;SDS011;16068;42.896;20.868;2022-08-03T16:54:35;5.97;;;2.45;;
28960;SDS011;16068;42.896;20.868;2022-08-03T16:57:22;12.02;;;2.30;;
28960;SDS011;16068;42.896;20.868;2022-08-03T17:00:31;6.00;;;1.90;;
28960;SDS011;16068;42.896;20.868;2022-08-03T17:03:26;5.38;;;2.00;;
28960;SDS011;16068;42.896;20.868;2022-08-03T17:06:26;21.52;;;10.90;;
28960;SDS011;16068;42.896;20.868;2022-08-03T17:09:19;27.00;;;21.83;;
28960;SDS011;16068;42.896;20.868;2022-08-03T17:12:05;17.23;;;5.13;;
28960;SDS011;16068;42.896;20.868;2022-08-03T17:14:55;9.65;;;6.30;;
28960;SDS011;16068;42.896;20.868;2022-08-03T17:17:51;29.52;;;22.20;;
28960;SDS011;16068;42.896;20.868;2022-08-03T17:20:46;26.58;;;15.70;;